sensor_id;sensor_type;location;lat;lon;timestamp;pressure;altitude;pressure_sealevel;temperature
70415;BMP280;57837;52.064;113.478;2023-08-30T00:00:25;94262.06;;;17.06
70415;BMP280;57837;52.064;113.478;2023-08-30T00:03:28;94262.03;;;17.63
70415;BMP280;57837;52.064;113.478;2023-08-30T00:06:31;94260.34;;;18.84
70415;BMP280;57837;52.064;113.478;2023-08-30T00:09:34;94259.94;;;20.67
70415;BMP280;57837;52.064;113.478;2023-08-30T00:12:39;94258.41;;;21.85
70415;BMP280;57837;52.064;113.478;2023-08-30T00:15:42;94265.72;;;22.54
70415;BMP280;57837;52.064;113.478;2023-08-30T00:18:45;94267.22;;;23.13
70415;BMP280;57837;52.064;113.478;2023-08-30T00:21:49;94257.16;;;23.90
70415;BMP280;57837;52.064;113.478;2023-08-30T00:24:53;94268.69;;;24.27
70415;BMP280;57837;52.064;113.478;2023-08-30T00:27:57;94263.34;;;24.60
70415;BMP280;57837;52.064;113.478;2023-08-30T00:31:02;94263.94;;;24.87
70415;BMP280;57837;52.064;113.478;2023-08-30T00:34:05;94267.81;;;25.07
70415;BMP280;57837;52.064;113.478;2023-08-30T00:37:09;94265.19;;;25.14
70415;BMP280;57837;52.064;113.478;2023-08-30T00:40:12;94262.16;;;25.10
70415;BMP280;57837;52.064;113.478;2023-08-30T00:43:17;94269.94;;;25.08
70415;BMP280;57837;52.064;113.478;2023-08-30T00:46:20;94263.63;;;25.19
70415;BMP280;57837;52.064;113.478;2023-08-30T00:49:24;94254.91;;;25.31
70415;BMP280;57837;52.064;113.478;2023-08-30T00:52:28;94260.78;;;25.81
70415;BMP280;57837;52.064;113.478;2023-08-30T00:55:36;94260.44;;;26.43
70415;BMP280;57837;52.064;113.478;2023-08-30T00:58:39;94259.03;;;26.95
70415;BMP280;57837;52.064;113.478;2023-08-30T01:01:43;94262.53;;;27.20
70415;BMP280;57837;52.064;113.478;2023-08-30T01:04:47;94260.34;;;27.34
70415;BMP280;57837;52.064;113.478;2023-08-30T01:07:52;94257.19;;;27.20
70415;BMP280;57837;52.064;113.478;2023-08-30T01:14:35;94252.91;;;28.12
70415;BMP280;57837;52.064;113.478;2023-08-30T01:17:42;94242.97;;;28.37
70415;BMP280;57837;52.064;113.478;2023-08-30T01:20:50;94236.72;;;28.17
70415;BMP280;57837;52.064;113.478;2023-08-30T01:24:03;94246.41;;;28.30
70415;BMP280;57837;52.064;113.478;2023-08-30T01:27:10;94247.28;;;28.33
70415;BMP280;57837;52.064;113.478;2023-08-30T01:30:15;94237.66;;;28.37
70415;BMP280;57837;52.064;113.478;2023-08-30T01:33:21;94242.16;;;28.52
70415;BMP280;57837;52.064;113.478;2023-08-30T01:36:26;94238.50;;;28.40
70415;BMP280;57837;52.064;113.478;2023-08-30T01:39:31;94233.34;;;28.42
70415;BMP280;57837;52.064;113.478;2023-08-30T01:42:36;94232.47;;;28.64
70415;BMP280;57837;52.064;113.478;2023-08-30T01:45:41;94232.22;;;28.69
70415;BMP280;57837;52.064;113.478;2023-08-30T01:48:47;94231.16;;;29.07
70415;BMP280;57837;52.064;113.478;2023-08-30T01:51:51;94229.16;;;29.15
70415;BMP280;57837;52.064;113.478;2023-08-30T01:54:57;94225.28;;;29.08
70415;BMP280;57837;52.064;113.478;2023-08-30T01:58:02;94222.59;;;29.25
70415;BMP280;57837;52.064;113.478;2023-08-30T02:01:06;94223.06;;;29.31
70415;BMP280;57837;52.064;113.478;2023-08-30T02:04:12;94221.66;;;29.30
70415;BMP280;57837;52.064;113.478;2023-08-30T02:07:27;94216.06;;;29.80
70415;BMP280;57837;52.064;113.478;2023-08-30T02:10:35;94220.44;;;29.58
70415;BMP280;57837;52.064;113.478;2023-08-30T02:13:41;94215.75;;;29.49
70415;BMP280;57837;52.064;113.478;2023-08-30T02:16:47;94219.34;;;29.61
70415;BMP280;57837;52.064;113.478;2023-08-30T02:19:50;94208.66;;;29.61
70415;BMP280;57837;52.064;113.478;2023-08-30T02:22:59;94208.25;;;29.91
70415;BMP280;57837;52.064;113.478;2023-08-30T02:26:17;94204.72;;;29.62
70415;BMP280;57837;52.064;113.478;2023-08-30T02:29:21;94202.69;;;29.70
70415;BMP280;57837;52.064;113.478;2023-08-30T02:32:24;94210.53;;;29.68
70415;BMP280;57837;52.064;113.478;2023-08-30T02:35:27;94204.31;;;29.66
70415;BMP280;57837;52.064;113.478;2023-08-30T02:38:30;94203.50;;;29.73
70415;BMP280;57837;52.064;113.478;2023-08-30T02:41:34;94205.28;;;29.87
70415;BMP280;57837;52.064;113.478;2023-08-30T02:44:38;94196.56;;;29.87
70415;BMP280;57837;52.064;113.478;2023-08-30T02:47:44;94196.72;;;29.98
70415;BMP280;57837;52.064;113.478;2023-08-30T02:50:49;94196.56;;;29.87
70415;BMP280;57837;52.064;113.478;2023-08-30T02:53:52;94197.16;;;29.68
70415;BMP280;57837;52.064;113.478;2023-08-30T02:56:55;94197.56;;;29.65
70415;BMP280;57837;52.064;113.478;2023-08-30T02:59:59;94190.38;;;29.14
70415;BMP280;57837;52.064;113.478;2023-08-30T03:03:04;94183.38;;;29.35
70415;BMP280;57837;52.064;113.478;2023-08-30T03:06:07;94183.69;;;29.66
70415;BMP280;57837;52.064;113.478;2023-08-30T03:09:11;94179.94;;;29.52
70415;BMP280;57837;52.064;113.478;2023-08-30T03:12:14;94179.75;;;29.40
70415;BMP280;57837;52.064;113.478;2023-08-30T03:15:21;94174.28;;;29.48
70415;BMP280;57837;52.064;113.478;2023-08-30T03:18:24;94167.97;;;29.43
70415;BMP280;57837;52.064;113.478;2023-08-30T03:21:27;94167.88;;;29.34
70415;BMP280;57837;52.064;113.478;2023-08-30T03:24:32;94165.81;;;29.15
70415;BMP280;57837;52.064;113.478;2023-08-30T03:27:36;94163.50;;;28.85
70415;BMP280;57837;52.064;113.478;2023-08-30T03:30:39;94152.91;;;28.60
70415;BMP280;57837;52.064;113.478;2023-08-30T03:33:45;94152.88;;;28.43
70415;BMP280;57837;52.064;113.478;2023-08-30T03:36:49;94153.03;;;28.20
70415;BMP280;57837;52.064;113.478;2023-08-30T03:39:57;94144.06;;;28.08
70415;BMP280;57837;52.064;113.478;2023-08-30T03:43:00;94144.09;;;28.33
70415;BMP280;57837;52.064;113.478;2023-08-30T03:46:04;94141.47;;;28.26
70415;BMP280;57837;52.064;113.478;2023-08-30T03:49:07;94132.25;;;28.02
70415;BMP280;57837;52.064;113.478;2023-08-30T03:52:11;94132.56;;;27.81
70415;BMP280;57837;52.064;113.478;2023-08-30T03:55:15;94136.44;;;27.23
70415;BMP280;57837;52.064;113.478;2023-08-30T03:58:19;94136.38;;;26.83
70415;BMP280;57837;52.064;113.478;2023-08-30T04:01:22;94130.84;;;26.96
70415;BMP280;57837;52.064;113.478;2023-08-30T04:04:25;94125.72;;;26.91
70415;BMP280;57837;52.064;113.478;2023-08-30T04:07:28;94125.91;;;26.93
70415;BMP280;57837;52.064;113.478;2023-08-30T04:10:35;94132.47;;;26.77
70415;BMP280;57837;52.064;113.478;2023-08-30T04:13:38;94126.03;;;26.17
70415;BMP280;57837;52.064;113.478;2023-08-30T04:16:42;94129.00;;;26.21
70415;BMP280;57837;52.064;113.478;2023-08-30T04:19:45;94126.38;;;26.36
70415;BMP280;57837;52.064;113.478;2023-08-30T04:22:48;94120.34;;;26.36
70415;BMP280;57837;52.064;113.478;2023-08-30T04:25:52;94115.56;;;26.34
70415;BMP280;57837;52.064;113.478;2023-08-30T04:28:55;94114.84;;;26.34
70415;BMP280;57837;52.064;113.478;2023-08-30T04:31:58;94103.34;;;26.39
70415;BMP280;57837;52.064;113.478;2023-08-30T04:35:01;94116.59;;;26.31
70415;BMP280;57837;52.064;113.478;2023-08-30T04:38:06;94109.00;;;26.35
70415;BMP280;57837;52.064;113.478;2023-08-30T04:41:10;94100.50;;;26.37
70415;BMP280;57837;52.064;113.478;2023-08-30T04:44:14;94095.34;;;26.31
70415;BMP280;57837;52.064;113.478;2023-08-30T04:47:18;94093.41;;;26.47
70415;BMP280;57837;52.064;113.478;2023-08-30T04:50:22;94090.50;;;26.75
70415;BMP280;57837;52.064;113.478;2023-08-30T04:53:25;94095.78;;;26.83
70415;BMP280;57837;52.064;113.478;2023-08-30T04:56:29;94095.44;;;26.86
70415;BMP280;57837;52.064;113.478;2023-08-30T04:59:32;94092.25;;;26.95
70415;BMP280;57837;52.064;113.478;2023-08-30T05:02:35;94093.94;;;27.08
70415;BMP280;57837;52.064;113.478;2023-08-30T05:05:45;94086.66;;;27.09
70415;BMP280;57837;52.064;113.478;2023-08-30T05:08:50;94082.44;;;27.38
70415;BMP280;57837;52.064;113.478;2023-08-30T05:11:54;94076.41;;;27.70
70415;BMP280;57837;52.064;113.478;2023-08-30T05:14:58;94068.81;;;27.83
70415;BMP280;57837;52.064;113.478;2023-08-30T05:18:03;94079.91;;;27.97
70415;BMP280;57837;52.064;113.478;2023-08-30T05:21:07;94073.13;;;27.54
70415;BMP280;57837;52.064;113.478;2023-08-30T05:24:11;94077.09;;;26.58
70415;BMP280;57837;52.064;113.478;2023-08-30T05:27:14;94070.41;;;26.34
70415;BMP280;57837;52.064;113.478;2023-08-30T05:30:20;94066.69;;;26.22
70415;BMP280;57837;52.064;113.478;2023-08-30T05:33:27;94065.47;;;26.31
70415;BMP280;57837;52.064;113.478;2023-08-30T05:36:55;94063.34;;;25.92
70415;BMP280;57837;52.064;113.478;2023-08-30T05:40:07;94064.16;;;25.33
70415;BMP280;57837;52.064;113.478;2023-08-30T05:43:11;94060.91;;;25.20
70415;BMP280;57837;52.064;113.478;2023-08-30T05:46:14;94061.72;;;25.51
70415;BMP280;57837;52.064;113.478;2023-08-30T05:49:19;94052.00;;;25.61
70415;BMP280;57837;52.064;113.478;2023-08-30T05:52:23;94043.84;;;25.66
70415;BMP280;57837;52.064;113.478;2023-08-30T05:55:28;94044.97;;;25.78
70415;BMP280;57837;52.064;113.478;2023-08-30T05:58:31;94037.50;;;26.07
70415;BMP280;57837;52.064;113.478;2023-08-30T06:01:35;94031.47;;;26.37
70415;BMP280;57837;52.064;113.478;2023-08-30T06:04:38;94025.38;;;26.59
70415;BMP280;57837;52.064;113.478;2023-08-30T06:07:42;94023.75;;;26.64
70415;BMP280;57837;52.064;113.478;2023-08-30T06:10:45;94019.91;;;26.50
70415;BMP280;57837;52.064;113.478;2023-08-30T06:13:49;94023.06;;;26.48
70415;BMP280;57837;52.064;113.478;2023-08-30T06:16:52;94019.28;;;26.74
70415;BMP280;57837;52.064;113.478;2023-08-30T06:19:55;94018.19;;;26.77
70415;BMP280;57837;52.064;113.478;2023-08-30T06:23:02;94008.81;;;26.76
70415;BMP280;57837;52.064;113.478;2023-08-30T06:26:05;94008.47;;;26.79
70415;BMP280;57837;52.064;113.478;2023-08-30T06:29:08;94009.34;;;26.82
70415;BMP280;57837;52.064;113.478;2023-08-30T06:32:11;94007.28;;;26.58
70415;BMP280;57837;52.064;113.478;2023-08-30T06:35:15;94008.28;;;26.22
70415;BMP280;57837;52.064;113.478;2023-08-30T06:38:19;94008.09;;;26.20
70415;BMP280;57837;52.064;113.478;2023-08-30T06:41:23;94004.53;;;26.25
70415;BMP280;57837;52.064;113.478;2023-08-30T06:44:26;93995.00;;;26.37
70415;BMP280;57837;52.064;113.478;2023-08-30T06:47:30;94003.47;;;26.28
70415;BMP280;57837;52.064;113.478;2023-08-30T06:50:33;94001.25;;;25.87
70415;BMP280;57837;52.064;113.478;2023-08-30T06:53:36;94000.69;;;25.66
70415;BMP280;57837;52.064;113.478;2023-08-30T06:56:39;93993.81;;;25.70
70415;BMP280;57837;52.064;113.478;2023-08-30T06:59:43;93980.72;;;25.72
70415;BMP280;57837;52.064;113.478;2023-08-30T07:02:46;93986.94;;;25.60
70415;BMP280;57837;52.064;113.478;2023-08-30T07:05:51;93981.97;;;25.64
70415;BMP280;57837;52.064;113.478;2023-08-30T07:08:55;93981.63;;;25.60
70415;BMP280;57837;52.064;113.478;2023-08-30T07:11:59;93985.50;;;25.51
70415;BMP280;57837;52.064;113.478;2023-08-30T07:15:04;93981.94;;;25.41
70415;BMP280;57837;52.064;113.478;2023-08-30T07:18:09;93979.59;;;25.15
70415;BMP280;57837;52.064;113.478;2023-08-30T07:21:13;93978.88;;;24.99
70415;BMP280;57837;52.064;113.478;2023-08-30T07:24:17;93981.72;;;25.16
70415;BMP280;57837;52.064;113.478;2023-08-30T07:27:20;93983.00;;;25.30
70415;BMP280;57837;52.064;113.478;2023-08-30T07:30:25;93983.38;;;25.50
70415;BMP280;57837;52.064;113.478;2023-08-30T07:33:28;93978.25;;;25.67
70415;BMP280;57837;52.064;113.478;2023-08-30T07:36:32;93971.88;;;25.77
70415;BMP280;57837;52.064;113.478;2023-08-30T07:39:51;93972.56;;;25.93
70415;BMP280;57837;52.064;113.478;2023-08-30T07:42:55;93973.81;;;26.07
70415;BMP280;57837;52.064;113.478;2023-08-30T07:46:01;93976.19;;;26.43
70415;BMP280;57837;52.064;113.478;2023-08-30T07:49:06;93973.69;;;26.45
70415;BMP280;57837;52.064;113.478;2023-08-30T07:52:09;93974.00;;;26.57
70415;BMP280;57837;52.064;113.478;2023-08-30T07:55:14;93973.16;;;26.46
70415;BMP280;57837;52.064;113.478;2023-08-30T07:58:18;93966.06;;;26.49
70415;BMP280;57837;52.064;113.478;2023-08-30T08:01:22;93965.72;;;26.45
70415;BMP280;57837;52.064;113.478;2023-08-30T08:04:25;93969.06;;;26.53
70415;BMP280;57837;52.064;113.478;2023-08-30T08:07:30;93969.41;;;26.50
70415;BMP280;57837;52.064;113.478;2023-08-30T08:10:33;93959.38;;;26.40
70415;BMP280;57837;52.064;113.478;2023-08-30T08:13:37;93962.38;;;26.44
70415;BMP280;57837;52.064;113.478;2023-08-30T08:16:41;93973.03;;;26.37
70415;BMP280;57837;52.064;113.478;2023-08-30T08:19:45;93975.38;;;26.18
70415;BMP280;57837;52.064;113.478;2023-08-30T08:22:49;93969.75;;;25.83
70415;BMP280;57837;52.064;113.478;2023-08-30T08:26:01;93969.25;;;25.77
70415;BMP280;57837;52.064;113.478;2023-08-30T08:29:05;93976.13;;;25.73
70415;BMP280;57837;52.064;113.478;2023-08-30T08:32:10;93967.13;;;25.53
70415;BMP280;57837;52.064;113.478;2023-08-30T08:35:14;93959.34;;;25.48
70415;BMP280;57837;52.064;113.478;2023-08-30T08:38:18;93963.75;;;25.53
70415;BMP280;57837;52.064;113.478;2023-08-30T08:41:24;93964.47;;;25.53
70415;BMP280;57837;52.064;113.478;2023-08-30T08:44:32;93963.22;;;25.47
70415;BMP280;57837;52.064;113.478;2023-08-30T08:47:36;93967.28;;;25.40
70415;BMP280;57837;52.064;113.478;2023-08-30T08:50:41;93968.16;;;25.43
70415;BMP280;57837;52.064;113.478;2023-08-30T08:53:45;93963.03;;;25.45
70415;BMP280;57837;52.064;113.478;2023-08-30T08:56:49;93958.25;;;25.36
70415;BMP280;57837;52.064;113.478;2023-08-30T08:59:55;93950.31;;;25.36
70415;BMP280;57837;52.064;113.478;2023-08-30T09:02:59;93957.56;;;25.35
70415;BMP280;57837;52.064;113.478;2023-08-30T09:06:04;93951.56;;;25.35
70415;BMP280;57837;52.064;113.478;2023-08-30T09:09:08;93958.09;;;25.33
70415;BMP280;57837;52.064;113.478;2023-08-30T09:12:12;93951.19;;;25.23
70415;BMP280;57837;52.064;113.478;2023-08-30T09:15:16;93950.47;;;25.22
70415;BMP280;57837;52.064;113.478;2023-08-30T09:18:23;93945.50;;;25.19
70415;BMP280;57837;52.064;113.478;2023-08-30T09:21:31;93944.78;;;25.18
70415;BMP280;57837;52.064;113.478;2023-08-30T09:24:41;93943.19;;;25.15
70415;BMP280;57837;52.064;113.478;2023-08-30T09:27:44;93947.63;;;25.13
70415;BMP280;57837;52.064;113.478;2023-08-30T09:30:52;93948.34;;;25.13
70415;BMP280;57837;52.064;113.478;2023-08-30T09:33:58;93948.66;;;25.10
70415;BMP280;57837;52.064;113.478;2023-08-30T09:37:02;93943.91;;;25.08
70415;BMP280;57837;52.064;113.478;2023-08-30T09:40:09;93949.38;;;25.10
70415;BMP280;57837;52.064;113.478;2023-08-30T09:43:13;93947.09;;;25.07
70415;BMP280;57837;52.064;113.478;2023-08-30T09:46:22;93950.94;;;24.98
70415;BMP280;57837;52.064;113.478;2023-08-30T09:49:46;93955.00;;;24.92
70415;BMP280;57837;52.064;113.478;2023-08-30T09:52:51;93952.88;;;24.90
70415;BMP280;57837;52.064;113.478;2023-08-30T09:55:58;93950.56;;;24.87
70415;BMP280;57837;52.064;113.478;2023-08-30T09:59:03;93955.50;;;24.83
70415;BMP280;57837;52.064;113.478;2023-08-30T10:02:09;93958.69;;;24.81
70415;BMP280;57837;52.064;113.478;2023-08-30T10:05:15;93955.84;;;24.79
70415;BMP280;57837;52.064;113.478;2023-08-30T10:08:20;93951.06;;;24.77
70415;BMP280;57837;52.064;113.478;2023-08-30T10:11:24;93954.78;;;24.74
70415;BMP280;57837;52.064;113.478;2023-08-30T10:14:30;93958.09;;;24.67
70415;BMP280;57837;52.064;113.478;2023-08-30T10:17:35;93964.97;;;24.63
70415;BMP280;57837;52.064;113.478;2023-08-30T10:20:41;93956.81;;;24.61
70415;BMP280;57837;52.064;113.478;2023-08-30T10:23:48;93957.38;;;24.59
70415;BMP280;57837;52.064;113.478;2023-08-30T10:26:52;93958.22;;;24.54
70415;BMP280;57837;52.064;113.478;2023-08-30T10:30:02;93962.63;;;24.52
70415;BMP280;57837;52.064;113.478;2023-08-30T10:33:13;93967.19;;;24.44
70415;BMP280;57837;52.064;113.478;2023-08-30T10:36:23;93970.31;;;24.35
70415;BMP280;57837;52.064;113.478;2023-08-30T10:39:35;93968.09;;;24.18
70415;BMP280;57837;52.064;113.478;2023-08-30T10:42:40;93969.91;;;23.95
70415;BMP280;57837;52.064;113.478;2023-08-30T10:45:44;93977.53;;;23.78
70415;BMP280;57837;52.064;113.478;2023-08-30T10:48:48;93971.72;;;23.58
70415;BMP280;57837;52.064;113.478;2023-08-30T10:51:56;93977.75;;;23.46
70415;BMP280;57837;52.064;113.478;2023-08-30T10:55:12;93986.66;;;23.35
70415;BMP280;57837;52.064;113.478;2023-08-30T10:58:16;93979.78;;;23.19
70415;BMP280;57837;52.064;113.478;2023-08-30T11:01:20;93985.75;;;22.99
70415;BMP280;57837;52.064;113.478;2023-08-30T11:04:24;93987.00;;;22.85
70415;BMP280;57837;52.064;113.478;2023-08-30T11:07:28;93989.56;;;22.64
70415;BMP280;57837;52.064;113.478;2023-08-30T11:10:32;93992.09;;;22.43
70415;BMP280;57837;52.064;113.478;2023-08-30T11:13:36;93997.53;;;22.19
70415;BMP280;57837;52.064;113.478;2023-08-30T11:16:41;93991.44;;;21.98
70415;BMP280;57837;52.064;113.478;2023-08-30T11:19:45;93994.63;;;21.78
70415;BMP280;57837;52.064;113.478;2023-08-30T11:22:49;94003.06;;;21.57
70415;BMP280;57837;52.064;113.478;2023-08-30T11:25:53;94002.56;;;21.40
70415;BMP280;57837;52.064;113.478;2023-08-30T11:29:06;94009.13;;;21.15
70415;BMP280;57837;52.064;113.478;2023-08-30T11:32:11;94016.88;;;20.89
70415;BMP280;57837;52.064;113.478;2023-08-30T11:35:17;94014.25;;;20.65
70415;BMP280;57837;52.064;113.478;2023-08-30T11:38:22;94023.38;;;20.34
70415;BMP280;57837;52.064;113.478;2023-08-30T11:41:26;94025.94;;;20.15
70415;BMP280;57837;52.064;113.478;2023-08-30T11:44:33;94027.88;;;20.15
70415;BMP280;57837;52.064;113.478;2023-08-30T11:47:37;94029.22;;;20.21
70415;BMP280;57837;52.064;113.478;2023-08-30T11:50:44;94026.06;;;20.28
70415;BMP280;57837;52.064;113.478;2023-08-30T11:53:51;94028.47;;;20.26
70415;BMP280;57837;52.064;113.478;2023-08-30T11:56:56;94035.50;;;20.18
70415;BMP280;57837;52.064;113.478;2023-08-30T12:00:11;94039.53;;;19.89
70415;BMP280;57837;52.064;113.478;2023-08-30T12:03:15;94035.63;;;19.60
70415;BMP280;57837;52.064;113.478;2023-08-30T12:06:23;94039.22;;;19.63
70415;BMP280;57837;52.064;113.478;2023-08-30T12:09:31;94040.34;;;19.68
70415;BMP280;57837;52.064;113.478;2023-08-30T12:12:36;94044.88;;;19.67
70415;BMP280;57837;52.064;113.478;2023-08-30T12:15:41;94050.81;;;19.73
70415;BMP280;57837;52.064;113.478;2023-08-30T12:18:47;94045.75;;;19.86
70415;BMP280;57837;52.064;113.478;2023-08-30T12:21:51;94041.59;;;19.96
70415;BMP280;57837;52.064;113.478;2023-08-30T12:24:55;94037.31;;;19.93
70415;BMP280;57837;52.064;113.478;2023-08-30T12:28:05;94040.94;;;19.90
70415;BMP280;57837;52.064;113.478;2023-08-30T12:31:10;94043.19;;;19.70
70415;BMP280;57837;52.064;113.478;2023-08-30T12:34:15;94047.31;;;19.59
70415;BMP280;57837;52.064;113.478;2023-08-30T12:37:19;94051.84;;;19.59
70415;BMP280;57837;52.064;113.478;2023-08-30T12:40:23;94046.16;;;19.55
70415;BMP280;57837;52.064;113.478;2023-08-30T12:43:27;94040.00;;;19.41
70415;BMP280;57837;52.064;113.478;2023-08-30T12:46:31;94042.94;;;19.27
70415;BMP280;57837;52.064;113.478;2023-08-30T12:49:35;94045.34;;;19.19
70415;BMP280;57837;52.064;113.478;2023-08-30T12:52:39;94045.41;;;19.08
70415;BMP280;57837;52.064;113.478;2023-08-30T12:55:43;94049.72;;;18.94
70415;BMP280;57837;52.064;113.478;2023-08-30T12:58:47;94048.28;;;18.88
70415;BMP280;57837;52.064;113.478;2023-08-30T13:01:51;94060.50;;;18.69
70415;BMP280;57837;52.064;113.478;2023-08-30T13:04:57;94052.19;;;18.53
70415;BMP280;57837;52.064;113.478;2023-08-30T13:08:03;94053.13;;;18.45
70415;BMP280;57837;52.064;113.478;2023-08-30T13:11:07;94054.09;;;18.36
70415;BMP280;57837;52.064;113.478;2023-08-30T13:14:11;94055.97;;;18.36
70415;BMP280;57837;52.064;113.478;2023-08-30T13:17:14;94056.22;;;18.43
70415;BMP280;57837;52.064;113.478;2023-08-30T13:20:21;94050.97;;;18.38
70415;BMP280;57837;52.064;113.478;2023-08-30T13:23:25;94051.47;;;18.36
70415;BMP280;57837;52.064;113.478;2023-08-30T13:26:29;94060.75;;;18.32
70415;BMP280;57837;52.064;113.478;2023-08-30T13:29:33;94068.84;;;18.11
70415;BMP280;57837;52.064;113.478;2023-08-30T13:32:38;94074.56;;;17.99
70415;BMP280;57837;52.064;113.478;2023-08-30T13:35:43;94077.88;;;17.99
70415;BMP280;57837;52.064;113.478;2023-08-30T13:38:47;94082.66;;;18.01
70415;BMP280;57837;52.064;113.478;2023-08-30T13:41:52;94079.53;;;18.02
70415;BMP280;57837;52.064;113.478;2023-08-30T13:44:55;94079.31;;;18.00
70415;BMP280;57837;52.064;113.478;2023-08-30T13:47:59;94078.09;;;17.96
70415;BMP280;57837;52.064;113.478;2023-08-30T13:51:03;94069.03;;;17.91
70415;BMP280;57837;52.064;113.478;2023-08-30T13:54:07;94077.56;;;17.69
70415;BMP280;57837;52.064;113.478;2023-08-30T13:57:11;94088.94;;;17.61
70415;BMP280;57837;52.064;113.478;2023-08-30T14:00:15;94086.09;;;17.59
70415;BMP280;57837;52.064;113.478;2023-08-30T14:03:20;94086.75;;;17.48
70415;BMP280;57837;52.064;113.478;2023-08-30T14:06:24;94079.13;;;17.39
70415;BMP280;57837;52.064;113.478;2023-08-30T14:09:29;94081.75;;;17.45
70415;BMP280;57837;52.064;113.478;2023-08-30T14:12:33;94082.00;;;17.47
70415;BMP280;57837;52.064;113.478;2023-08-30T14:15:38;94081.75;;;17.45
70415;BMP280;57837;52.064;113.478;2023-08-30T14:18:43;94086.03;;;17.42
70415;BMP280;57837;52.064;113.478;2023-08-30T14:21:46;94084.06;;;17.32
70415;BMP280;57837;52.064;113.478;2023-08-30T14:24:50;94084.22;;;17.17
70415;BMP280;57837;52.064;113.478;2023-08-30T14:28:14;94085.91;;;17.20
70415;BMP280;57837;52.064;113.478;2023-08-30T14:31:18;94086.38;;;17.18
70415;BMP280;57837;52.064;113.478;2023-08-30T14:34:23;94081.06;;;17.07
70415;BMP280;57837;52.064;113.478;2023-08-30T14:37:27;94087.63;;;16.92
70415;BMP280;57837;52.064;113.478;2023-08-30T14:40:31;94090.81;;;16.70
70415;BMP280;57837;52.064;113.478;2023-08-30T14:43:35;94090.25;;;16.60
70415;BMP280;57837;52.064;113.478;2023-08-30T14:46:39;94095.28;;;16.64
70415;BMP280;57837;52.064;113.478;2023-08-30T14:49:44;94088.19;;;16.64
70415;BMP280;57837;52.064;113.478;2023-08-30T14:52:48;94098.41;;;16.42
70415;BMP280;57837;52.064;113.478;2023-08-30T14:55:53;94092.47;;;16.16
70415;BMP280;57837;52.064;113.478;2023-08-30T14:58:57;94096.97;;;16.15
70415;BMP280;57837;52.064;113.478;2023-08-30T15:02:01;94098.72;;;16.24
70415;BMP280;57837;52.064;113.478;2023-08-30T15:05:04;94090.94;;;16.29
70415;BMP280;57837;52.064;113.478;2023-08-30T15:08:08;94104.00;;;16.29
70415;BMP280;57837;52.064;113.478;2023-08-30T15:11:12;94104.09;;;16.15
70415;BMP280;57837;52.064;113.478;2023-08-30T15:14:16;94111.38;;;15.85
70415;BMP280;57837;52.064;113.478;2023-08-30T15:17:19;94107.34;;;15.64
70415;BMP280;57837;52.064;113.478;2023-08-30T15:20:23;94115.16;;;15.64
70415;BMP280;57837;52.064;113.478;2023-08-30T15:23:26;94107.06;;;15.62
70415;BMP280;57837;52.064;113.478;2023-08-30T15:26:30;94117.91;;;15.55
70415;BMP280;57837;52.064;113.478;2023-08-30T15:29:34;94119.19;;;15.44
70415;BMP280;57837;52.064;113.478;2023-08-30T15:32:38;94107.38;;;15.49
70415;BMP280;57837;52.064;113.478;2023-08-30T15:35:44;94114.56;;;15.54
70415;BMP280;57837;52.064;113.478;2023-08-30T15:38:48;94112.59;;;15.49
70415;BMP280;57837;52.064;113.478;2023-08-30T15:41:52;94112.28;;;15.41
70415;BMP280;57837;52.064;113.478;2023-08-30T15:44:56;94110.88;;;15.26
70415;BMP280;57837;52.064;113.478;2023-08-30T15:48:00;94112.69;;;15.20
70415;BMP280;57837;52.064;113.478;2023-08-30T15:51:04;94111.69;;;15.02
70415;BMP280;57837;52.064;113.478;2023-08-30T15:54:22;94114.09;;;15.01
70415;BMP280;57837;52.064;113.478;2023-08-30T15:57:25;94109.84;;;14.88
70415;BMP280;57837;52.064;113.478;2023-08-30T16:00:28;94112.81;;;14.81
70415;BMP280;57837;52.064;113.478;2023-08-30T16:03:32;94114.09;;;14.71
70415;BMP280;57837;52.064;113.478;2023-08-30T16:06:39;94114.44;;;14.64
70415;BMP280;57837;52.064;113.478;2023-08-30T16:09:42;94112.19;;;14.57
70415;BMP280;57837;52.064;113.478;2023-08-30T16:12:49;94115.25;;;14.55
70415;BMP280;57837;52.064;113.478;2023-08-30T16:15:53;94116.31;;;14.49
70415;BMP280;57837;52.064;113.478;2023-08-30T16:18:58;94116.25;;;14.43
70415;BMP280;57837;52.064;113.478;2023-08-30T16:22:03;94119.72;;;14.40
70415;BMP280;57837;52.064;113.478;2023-08-30T16:25:08;94117.31;;;14.37
70415;BMP280;57837;52.064;113.478;2023-08-30T16:28:11;94114.59;;;14.31
70415;BMP280;57837;52.064;113.478;2023-08-30T16:31:15;94116.91;;;14.29
70415;BMP280;57837;52.064;113.478;2023-08-30T16:34:21;94121.75;;;14.22
70415;BMP280;57837;52.064;113.478;2023-08-30T16:37:25;94111.75;;;14.20
70415;BMP280;57837;52.064;113.478;2023-08-30T16:40:28;94122.56;;;14.28
70415;BMP280;57837;52.064;113.478;2023-08-30T16:43:35;94120.25;;;14.30
70415;BMP280;57837;52.064;113.478;2023-08-30T16:46:38;94116.38;;;14.25
70415;BMP280;57837;52.064;113.478;2023-08-30T16:49:43;94105.06;;;14.14
70415;BMP280;57837;52.064;113.478;2023-08-30T16:52:47;94114.78;;;14.04
70415;BMP280;57837;52.064;113.478;2023-08-30T16:55:51;94117.09;;;14.02
70415;BMP280;57837;52.064;113.478;2023-08-30T16:58:54;94114.06;;;14.03
70415;BMP280;57837;52.064;113.478;2023-08-30T17:01:58;94111.91;;;14.02
70415;BMP280;57837;52.064;113.478;2023-08-30T17:05:02;94117.09;;;14.02
70415;BMP280;57837;52.064;113.478;2023-08-30T17:08:05;94113.69;;;13.96
70415;BMP280;57837;52.064;113.478;2023-08-30T17:11:10;94112.59;;;13.88
70415;BMP280;57837;52.064;113.478;2023-08-30T17:14:14;94117.84;;;13.79
70415;BMP280;57837;52.064;113.478;2023-08-30T17:17:19;94110.22;;;13.75